createdAt,value
2019-05-18T00:00:22.632Z,78.53
2019-05-18T00:01:22.607Z,79.14
2019-05-18T00:02:22.590Z,78.94
2019-05-18T00:03:22.577Z,78.84
2019-05-18T00:04:22.566Z,78.74
2019-05-18T00:05:22.579Z,78.47
2019-05-18T00:06:22.547Z,78.74
2019-05-18T00:07:22.530Z,78.53
2019-05-18T00:08:22.530Z,79.25
2019-05-18T00:09:22.514Z,79.55
2019-05-18T00:10:22.544Z,79.28
2019-05-18T00:11:22.500Z,79.18
2019-05-18T00:12:22.476Z,79.38
2019-05-18T00:13:22.479Z,79.18
2019-05-18T00:14:22.476Z,79.49
2019-05-18T00:15:22.477Z,79.38
2019-05-18T00:16:22.441Z,79.79
2019-05-18T00:17:25.320Z,79.79
2019-05-18T00:18:22.409Z,79.69
2019-05-18T00:19:22.401Z,79.59
2019-05-18T00:20:22.405Z,79.49
2019-05-18T00:21:22.423Z,80.19
2019-05-18T00:22:22.368Z,80.03
2019-05-18T00:23:22.359Z,80.13
2019-05-18T00:24:22.351Z,79.99
2019-05-18T00:25:22.336Z,80.03
2019-05-18T00:26:22.343Z,80.24
2019-05-18T00:27:22.321Z,80.24
2019-05-18T00:28:22.309Z,80.54
2019-05-18T00:29:22.295Z,80.54
2019-05-18T00:30:22.285Z,80.33
2019-05-18T00:31:22.357Z,80.64
2019-05-18T00:32:22.290Z,81.35
2019-05-18T00:33:22.258Z,81.05
2019-05-18T00:34:22.239Z,81.25
2019-05-18T00:35:22.228Z,81.05
2019-05-18T00:36:22.236Z,81.15
2019-05-18T00:37:22.221Z,81.09
2019-05-18T00:38:22.196Z,80.94
2019-05-18T00:39:22.195Z,81.15
2019-05-18T00:40:22.179Z,81.15
2019-05-18T00:41:22.306Z,80.94
2019-05-18T00:42:22.180Z,81.35
2019-05-18T00:43:22.171Z,80.94
2019-05-18T00:44:22.133Z,81.05
2019-05-18T00:45:22.125Z,81.15
2019-05-18T00:46:22.179Z,81.39
2019-05-18T00:47:22.109Z,81.29
2019-05-18T00:48:22.090Z,81.35
2019-05-18T00:49:30.337Z,81.39
2019-05-18T00:50:22.067Z,81.79
2019-05-18T00:51:23.454Z,81.79
2019-05-18T00:52:22.051Z,81.59
2019-05-18T00:53:22.043Z,81.90
2019-05-18T00:54:22.047Z,82.04
2019-05-18T00:55:22.013Z,82.00
2019-05-18T00:56:22.563Z,82.10
2019-05-18T00:57:21.999Z,81.90
2019-05-18T00:58:21.989Z,82.00
2019-05-18T00:59:21.972Z,82.20
2019-05-18T01:00:21.988Z,82.10
2019-05-18T01:01:29.249Z,82.10
2019-05-18T01:02:21.941Z,82.10
2019-05-18T01:03:21.937Z,82.31
2019-05-18T01:04:21.920Z,82.51
2019-05-18T01:05:21.918Z,82.45
2019-05-18T01:06:21.958Z,82.65
2019-05-18T01:07:21.914Z,82.51
2019-05-18T01:08:21.888Z,82.65
2019-05-18T01:09:21.868Z,82.54
2019-05-18T01:10:21.857Z,82.65
2019-05-18T01:11:21.899Z,82.54
2019-05-18T01:12:21.860Z,82.95
2019-05-18T01:13:21.818Z,83.26
2019-05-18T01:14:21.810Z,83.06
2019-05-18T01:15:21.827Z,83.36
2019-05-18T01:16:21.788Z,83.36
2019-05-18T01:17:21.800Z,83.15
2019-05-18T01:18:21.779Z,83.26
2019-05-18T01:19:21.756Z,83.06
2019-05-18T01:20:21.756Z,82.95
2019-05-18T01:21:21.742Z,83.56
2019-05-18T01:22:21.736Z,83.36
2019-05-18T01:23:21.720Z,83.56
2019-05-18T01:24:21.708Z,83.87
2019-05-18T01:25:21.695Z,83.76
2019-05-18T01:26:21.700Z,83.76
2019-05-18T01:27:21.692Z,83.76
2019-05-18T01:28:21.683Z,83.76
2019-05-18T01:29:21.662Z,83.76
2019-05-18T01:30:21.648Z,83.76
2019-05-18T01:31:21.640Z,84.07
2019-05-18T01:32:21.694Z,83.81
2019-05-18T01:33:21.625Z,84.21
2019-05-18T01:34:21.601Z,84.31
2019-05-18T01:35:21.599Z,84.21
2019-05-18T01:36:21.589Z,84.21
2019-05-18T01:37:21.569Z,84.31
2019-05-18T01:38:21.582Z,84.52
2019-05-18T01:39:21.540Z,84.82
2019-05-18T01:40:21.540Z,84.52
2019-05-18T01:41:21.521Z,84.62
2019-05-18T01:42:21.527Z,84.92
2019-05-18T01:43:21.526Z,84.82
2019-05-18T01:44:21.490Z,85.27
2019-05-18T01:45:21.473Z,84.92
2019-05-18T01:46:21.470Z,84.97
2019-05-18T01:47:21.465Z,84.52
2019-05-18T01:48:21.454Z,85.06
2019-05-18T01:49:21.450Z,85.13
2019-05-18T01:50:21.460Z,85.03
2019-05-18T01:51:21.416Z,85.33
2019-05-18T01:52:21.415Z,84.86
2019-05-18T01:53:21.541Z,85.33
2019-05-18T01:54:21.389Z,84.92
2019-05-18T01:55:21.361Z,85.13
2019-05-18T01:56:21.354Z,84.76
2019-05-18T01:57:21.353Z,84.82
2019-05-18T01:58:21.380Z,84.82
2019-05-18T01:59:21.321Z,84.66
2019-05-18T02:00:21.330Z,84.82
2019-05-18T02:01:21.301Z,84.66
2019-05-18T02:02:21.296Z,84.62
2019-05-18T02:03:21.296Z,85.13
2019-05-18T02:04:21.278Z,85.06
2019-05-18T02:05:21.270Z,85.58
2019-05-18T02:06:21.247Z,85.27
2019-05-18T02:07:21.269Z,84.97
2019-05-18T02:08:21.225Z,85.27
2019-05-18T02:09:21.219Z,85.06
2019-05-18T02:10:21.209Z,85.17
2019-05-18T02:11:21.200Z,85.37
2019-05-18T02:12:21.204Z,85.27
2019-05-18T02:13:21.202Z,85.06
2019-05-18T02:14:21.169Z,85.17
2019-05-18T02:15:21.157Z,84.97
2019-05-18T02:16:21.142Z,85.17
2019-05-18T02:17:21.131Z,85.27
2019-05-18T02:18:28.791Z,85.27
2019-05-18T02:19:24.780Z,85.51
2019-05-18T02:20:21.107Z,85.78
2019-05-18T02:21:21.212Z,85.98
2019-05-18T02:22:21.083Z,86.49
2019-05-18T02:23:21.089Z,85.78
2019-05-18T02:24:21.065Z,86.53
2019-05-18T02:25:21.043Z,86.19
2019-05-18T02:26:21.034Z,86.29
2019-05-18T02:27:21.019Z,86.08
2019-05-18T02:28:21.036Z,85.88
2019-05-18T02:29:21.005Z,85.58
2019-05-18T02:30:21.021Z,85.98
2019-05-18T02:31:20.978Z,85.72
2019-05-18T02:32:20.984Z,85.98
2019-05-18T02:33:20.999Z,86.22
2019-05-18T02:34:20.955Z,86.02
2019-05-18T02:35:20.939Z,87.04
2019-05-18T02:36:20.923Z,86.63
2019-05-18T02:37:20.922Z,86.13
2019-05-18T02:38:20.945Z,86.13
2019-05-18T02:39:20.895Z,86.13
2019-05-18T02:40:20.887Z,86.02
2019-05-18T02:41:20.877Z,86.22
2019-05-18T02:42:20.859Z,86.53
2019-05-18T02:43:20.885Z,86.43
2019-05-18T02:44:20.838Z,86.94
2019-05-18T02:45:20.841Z,87.75
2019-05-18T02:46:20.823Z,86.94
2019-05-18T02:47:20.815Z,86.94
2019-05-18T02:48:20.852Z,86.94
2019-05-18T02:49:20.789Z,86.94
2019-05-18T02:50:20.780Z,87.04
2019-05-18T02:51:20.772Z,86.94
2019-05-18T02:52:20.768Z,87.75
2019-05-18T02:53:20.785Z,87.75
2019-05-18T02:54:20.740Z,87.55
2019-05-18T02:55:20.728Z,87.35
2019-05-18T02:56:20.736Z,87.49
2019-05-18T02:57:20.702Z,87.29
2019-05-18T02:58:20.753Z,87.29
2019-05-18T02:59:20.683Z,87.38
2019-05-18T03:00:20.677Z,87.49
2019-05-18T03:01:20.678Z,87.49
2019-05-18T03:02:20.651Z,87.79
2019-05-18T03:03:20.710Z,87.69
2019-05-18T03:04:20.649Z,88.00
2019-05-18T03:05:20.618Z,88.20
2019-05-18T03:06:20.610Z,88.00
2019-05-18T03:07:20.619Z,88.16
2019-05-18T03:08:20.638Z,88.20
2019-05-18T03:09:20.590Z,88.10
2019-05-18T03:10:20.582Z,88.10
2019-05-18T03:11:20.547Z,88.10
2019-05-18T03:12:20.574Z,88.26
2019-05-18T03:13:20.552Z,88.00
2019-05-18T03:14:20.541Z,88.10
2019-05-18T03:15:20.516Z,87.59
2019-05-18T03:16:20.522Z,87.69
2019-05-18T03:17:20.491Z,87.65
2019-05-18T03:18:20.496Z,87.75
2019-05-18T03:19:20.465Z,87.65
2019-05-18T03:20:20.490Z,87.79
2019-05-18T03:21:20.446Z,88.00
2019-05-18T03:22:20.452Z,88.10
2019-05-18T03:23:20.473Z,87.85
2019-05-18T03:24:20.422Z,87.69
2019-05-18T03:25:20.408Z,88.20
2019-05-18T03:26:20.400Z,87.69
2019-05-18T03:27:20.388Z,88.10
2019-05-18T03:28:20.385Z,88.00
2019-05-18T03:29:20.400Z,88.10
2019-05-18T03:30:20.374Z,88.40
2019-05-18T03:31:20.340Z,88.31
2019-05-18T03:32:20.334Z,88.40
2019-05-18T03:33:20.359Z,88.51
2019-05-18T03:34:20.362Z,88.06
2019-05-18T03:35:20.297Z,87.96
2019-05-18T03:36:20.286Z,87.69
2019-05-18T03:37:20.276Z,88.10
2019-05-18T03:38:20.267Z,87.90
2019-05-18T03:39:20.270Z,87.90
2019-05-18T03:40:20.243Z,87.69
2019-05-18T03:41:20.239Z,88.00
2019-05-18T03:42:20.223Z,87.85
2019-05-18T03:43:20.210Z,87.65
2019-05-18T03:44:20.217Z,87.65
2019-05-18T03:45:20.194Z,87.55
2019-05-18T03:46:23.749Z,87.45
2019-05-18T03:47:20.179Z,87.59
2019-05-18T03:48:20.160Z,87.79
2019-05-18T03:49:26.617Z,87.90
2019-05-18T03:50:21.146Z,87.69
2019-05-18T03:51:20.126Z,88.20
2019-05-18T03:52:20.117Z,88.20
2019-05-18T03:53:20.106Z,88.06
2019-05-18T03:54:20.118Z,87.90
2019-05-18T03:55:20.079Z,87.69
2019-05-18T03:56:20.077Z,88.10
2019-05-18T03:57:20.065Z,87.79
2019-05-18T03:58:20.072Z,88.10
2019-05-18T03:59:20.140Z,88.06
2019-05-18T04:00:20.032Z,88.31
2019-05-18T04:01:20.018Z,88.10
2019-05-18T04:02:20.023Z,88.26
2019-05-18T04:03:20.007Z,88.31
2019-05-18T04:04:20.022Z,88.00
2019-05-18T04:05:19.981Z,88.10
2019-05-18T04:06:19.968Z,88.10
2019-05-18T04:07:19.969Z,88.26
2019-05-18T04:08:19.965Z,88.16
2019-05-18T04:09:19.969Z,88.26
2019-05-18T04:10:19.916Z,88.16
2019-05-18T04:11:19.911Z,88.16
2019-05-18T04:12:19.899Z,88.10
2019-05-18T04:13:19.893Z,87.96
2019-05-18T04:14:19.895Z,88.10
2019-05-18T04:15:19.894Z,88.06
2019-05-18T04:16:19.893Z,87.75
2019-05-18T04:17:19.844Z,87.75
2019-05-18T04:18:19.850Z,87.75
2019-05-18T04:19:19.842Z,87.85
2019-05-18T04:20:19.881Z,87.65
2019-05-18T04:21:19.825Z,87.55
2019-05-18T04:22:19.788Z,87.55
2019-05-18T04:23:19.778Z,87.65
2019-05-18T04:24:19.786Z,87.55
2019-05-18T04:25:19.765Z,87.24
2019-05-18T04:26:19.767Z,87.75
2019-05-18T04:27:19.774Z,87.04
2019-05-18T04:28:19.720Z,87.14
2019-05-18T04:29:19.731Z,87.24
2019-05-18T04:30:19.715Z,87.14
2019-05-18T04:31:19.699Z,87.45
2019-05-18T04:32:19.693Z,87.75
2019-05-18T04:33:19.721Z,87.20
2019-05-18T04:34:20.160Z,87.00
2019-05-18T04:35:19.654Z,87.00
2019-05-18T04:36:19.638Z,86.29
2019-05-18T04:37:19.637Z,86.59
2019-05-18T04:38:19.645Z,86.13
2019-05-18T04:39:19.649Z,86.29
2019-05-18T04:40:19.596Z,86.19
2019-05-18T04:41:19.592Z,86.39
2019-05-18T04:42:19.587Z,86.19
2019-05-18T04:43:19.570Z,85.98
2019-05-18T04:44:19.593Z,86.19
2019-05-18T04:45:19.540Z,86.08
2019-05-18T04:46:19.532Z,85.98
2019-05-18T04:47:19.524Z,85.98
2019-05-18T04:48:19.519Z,85.98
2019-05-18T04:49:19.516Z,86.19
2019-05-18T04:50:19.499Z,85.74
2019-05-18T04:51:19.481Z,85.98
2019-05-18T04:52:26.707Z,86.29
2019-05-18T04:53:19.478Z,86.08
2019-05-18T04:54:19.474Z,85.78
2019-05-18T04:55:19.453Z,85.33
2019-05-18T04:56:19.423Z,85.33
2019-05-18T04:57:19.417Z,85.33
2019-05-18T04:58:19.408Z,85.43
2019-05-18T04:59:27.945Z,85.03
2019-05-18T05:00:19.394Z,85.13
2019-05-18T05:01:19.392Z,84.68
2019-05-18T05:02:27.239Z,83.83
2019-05-18T05:03:19.357Z,82.67
2019-05-18T05:04:19.429Z,82.03
2019-05-18T05:05:27.245Z,81.01
2019-05-18T05:06:19.324Z,80.06
2019-05-18T05:07:19.344Z,79.65
2019-05-18T05:08:19.294Z,79.65
2019-05-18T05:09:19.300Z,79.35
2019-05-18T05:10:19.269Z,79.69
2019-05-18T05:11:19.263Z,79.45
2019-05-18T05:12:19.260Z,80.06
2019-05-18T05:13:19.240Z,80.19
2019-05-18T05:14:19.273Z,81.01
2019-05-18T05:15:19.220Z,81.15
2019-05-18T05:16:19.221Z,81.15
2019-05-18T05:17:19.201Z,81.45
2019-05-18T05:18:19.199Z,81.35
2019-05-18T05:19:19.181Z,81.76
2019-05-18T05:20:20.311Z,81.59
2019-05-18T05:21:19.155Z,81.70
2019-05-18T05:22:19.155Z,82.10
2019-05-18T05:23:19.140Z,82.00
2019-05-18T05:24:19.153Z,82.20
2019-05-18T05:25:19.115Z,82.10
2019-05-18T05:26:19.110Z,81.90
2019-05-18T05:27:19.088Z,82.10
2019-05-18T05:28:19.084Z,82.00
2019-05-18T05:29:19.096Z,82.20
2019-05-18T05:30:19.076Z,81.59
2019-05-18T05:31:19.048Z,81.70
2019-05-18T05:32:19.039Z,81.59
2019-05-18T05:33:19.032Z,81.39
2019-05-18T05:34:19.042Z,81.59
2019-05-18T05:35:19.051Z,81.59
2019-05-18T05:36:19.026Z,81.70
2019-05-18T05:37:18.988Z,81.90
2019-05-18T05:38:18.970Z,82.00
2019-05-18T05:39:18.971Z,81.90
2019-05-18T05:40:18.972Z,81.49
2019-05-18T05:41:18.947Z,81.09
2019-05-18T05:42:18.964Z,81.29
2019-05-18T05:43:18.919Z,81.15
2019-05-18T05:44:18.908Z,81.05
2019-05-18T05:45:18.913Z,80.84
2019-05-18T05:46:18.904Z,80.74
2019-05-18T05:47:18.886Z,80.54
2019-05-18T05:48:18.865Z,80.54
2019-05-18T05:49:18.863Z,80.64
2019-05-18T05:50:33.044Z,80.54
2019-05-18T05:51:19.832Z,80.24
2019-05-18T05:52:18.826Z,80.13
2019-05-18T05:53:18.826Z,79.52
2019-05-18T05:54:18.809Z,79.72
2019-05-18T05:55:18.818Z,79.22
2019-05-18T05:56:18.780Z,79.22
2019-05-18T05:57:18.781Z,79.59
2019-05-18T05:58:18.761Z,79.49
2019-05-18T05:59:18.772Z,79.59
2019-05-18T06:00:18.769Z,79.18
2019-05-18T06:01:18.721Z,79.18
2019-05-18T06:02:18.717Z,79.59
2019-05-18T06:03:18.710Z,79.28
2019-05-18T06:04:18.693Z,79.04
2019-05-18T06:05:18.739Z,78.44
2019-05-18T06:06:18.680Z,78.64
2019-05-18T06:07:18.662Z,78.03
2019-05-18T06:08:18.683Z,77.62
2019-05-18T06:09:18.644Z,78.33
2019-05-18T06:10:18.651Z,77.99
2019-05-18T06:11:18.676Z,77.79
2019-05-18T06:12:18.611Z,77.08
2019-05-18T06:13:18.591Z,76.57
2019-05-18T06:14:18.589Z,76.78
2019-05-18T06:15:18.611Z,76.47
2019-05-18T06:16:18.575Z,76.37
2019-05-18T06:17:18.555Z,76.06
2019-05-18T06:18:18.544Z,75.76
2019-05-18T06:19:18.537Z,75.66
2019-05-18T06:20:18.549Z,75.56
2019-05-18T06:21:18.520Z,75.46
2019-05-18T06:22:18.498Z,75.56
2019-05-18T06:23:18.503Z,75.25
2019-05-18T06:24:18.481Z,75.22
2019-05-18T06:25:18.484Z,74.81
2019-05-18T06:26:18.456Z,74.91
2019-05-18T06:27:18.453Z,74.71
2019-05-18T06:28:18.448Z,74.41
2019-05-18T06:29:18.427Z,74.51
2019-05-18T06:30:18.436Z,73.80
2019-05-18T06:31:18.402Z,73.97
2019-05-18T06:32:18.393Z,74.10
2019-05-18T06:33:18.394Z,73.70
2019-05-18T06:34:18.384Z,73.80
2019-05-18T06:35:18.373Z,74.10
2019-05-18T06:36:18.361Z,74.07
2019-05-18T06:37:18.344Z,74.07
2019-05-18T06:38:18.336Z,73.86
2019-05-18T06:39:18.326Z,73.76
2019-05-18T06:40:18.344Z,72.75
2019-05-18T06:41:18.317Z,72.14
2019-05-18T06:42:18.284Z,71.84
2019-05-18T06:43:18.276Z,72.75
2019-05-18T06:44:18.268Z,72.21
2019-05-18T06:45:18.252Z,71.30
2019-05-18T06:46:18.264Z,71.40
2019-05-18T06:47:18.261Z,71.09
2019-05-18T06:48:18.224Z,70.39
2019-05-18T06:49:18.209Z,70.08
2019-05-18T06:50:18.209Z,69.98
2019-05-18T06:51:18.212Z,69.95
2019-05-18T06:52:18.182Z,69.95
2019-05-18T06:53:18.167Z,70.15
2019-05-18T06:54:18.156Z,70.56
2019-05-18T06:55:18.148Z,70.76
2019-05-18T06:56:18.153Z,70.45
2019-05-18T06:57:18.128Z,69.85
2019-05-18T06:58:18.120Z,69.65
2019-05-18T06:59:18.153Z,69.74
2019-05-18T07:00:18.090Z,69.44
2019-05-18T07:01:18.092Z,69.81
2019-05-18T07:02:18.065Z,69.92
2019-05-18T07:03:18.059Z,69.81
2019-05-18T07:04:18.070Z,69.21
2019-05-18T07:05:18.040Z,68.60
2019-05-18T07:06:18.069Z,68.40
2019-05-18T07:07:18.021Z,68.19
2019-05-18T07:08:18.009Z,67.29
2019-05-18T07:09:17.995Z,67.49
2019-05-18T07:10:17.984Z,67.46
2019-05-18T07:11:17.975Z,66.75
2019-05-18T07:12:17.986Z,67.05
2019-05-18T07:13:17.958Z,66.55
2019-05-18T07:14:25.430Z,66.35
2019-05-18T07:15:18.933Z,67.15
2019-05-18T07:16:17.922Z,66.64
2019-05-18T07:17:17.929Z,66.44
2019-05-18T07:18:17.901Z,66.85
2019-05-18T07:19:17.885Z,66.44
2019-05-18T07:20:17.896Z,66.64
2019-05-18T07:21:22.394Z,65.81
2019-05-18T07:22:17.886Z,65.91
2019-05-18T07:23:17.838Z,65.70
2019-05-18T07:24:17.839Z,65.40
2019-05-18T07:25:17.836Z,65.00
2019-05-18T07:26:17.812Z,64.70
2019-05-18T07:27:17.816Z,65.20
2019-05-18T07:28:17.793Z,65.10
2019-05-18T07:29:17.777Z,65.07
2019-05-18T07:30:17.785Z,65.00
2019-05-18T07:31:17.756Z,64.87
2019-05-18T07:32:17.761Z,65.20
2019-05-18T07:33:17.742Z,64.59
2019-05-18T07:34:17.763Z,64.79
2019-05-18T07:35:17.717Z,64.90
2019-05-18T07:36:17.711Z,64.90
2019-05-18T07:37:17.708Z,65.20
2019-05-18T07:38:17.682Z,65.27
2019-05-18T07:39:17.670Z,65.17
2019-05-18T07:40:17.655Z,64.97
2019-05-18T07:41:17.667Z,64.67
2019-05-18T07:42:17.661Z,64.97
2019-05-18T07:43:17.628Z,64.97
2019-05-18T07:44:17.622Z,64.97
2019-05-18T07:45:17.621Z,64.56
2019-05-18T07:46:17.593Z,64.76
2019-05-18T07:47:17.598Z,64.76
2019-05-18T07:48:17.575Z,64.56
2019-05-18T07:49:17.569Z,64.46
2019-05-18T07:50:17.550Z,65.14
2019-05-18T07:51:17.556Z,64.97
2019-05-18T07:52:17.541Z,63.85
2019-05-18T07:53:17.590Z,64.23
2019-05-18T07:54:17.512Z,64.84
2019-05-18T07:55:17.502Z,64.84
2019-05-18T07:56:17.497Z,64.84
2019-05-18T07:57:17.501Z,64.03
2019-05-18T07:58:17.487Z,64.53
2019-05-18T07:59:19.832Z,63.93
2019-05-18T08:00:17.451Z,64.53
2019-05-18T08:01:17.433Z,64.53
2019-05-18T08:02:17.449Z,63.93
2019-05-18T08:03:17.563Z,63.90
2019-05-18T08:04:17.416Z,63.90
2019-05-18T08:05:17.391Z,64.30
2019-05-18T08:06:17.395Z,63.46
2019-05-18T08:07:17.448Z,62.25
2019-05-18T08:08:17.382Z,61.75
2019-05-18T08:09:17.344Z,61.04
2019-05-18T08:10:17.374Z,61.95
2019-05-18T08:11:17.330Z,61.85
2019-05-18T08:12:17.319Z,60.44
2019-05-18T08:13:17.340Z,60.74
2019-05-18T08:14:17.305Z,61.04
2019-05-18T08:15:17.289Z,60.44
2019-05-18T08:16:17.279Z,61.24
2019-05-18T08:17:17.258Z,61.85
2019-05-18T08:18:17.272Z,61.75
2019-05-18T08:19:17.244Z,61.55
2019-05-18T08:20:17.228Z,61.85
2019-05-18T08:21:17.222Z,61.55
2019-05-18T08:22:17.228Z,60.91
2019-05-18T08:23:17.224Z,60.51
2019-05-18T08:24:17.188Z,60.41
2019-05-18T08:25:17.181Z,60.31
2019-05-18T08:26:17.170Z,59.80
2019-05-18T08:27:17.163Z,60.61
2019-05-18T08:28:17.167Z,60.10
2019-05-18T08:29:17.135Z,59.77
2019-05-18T08:30:17.119Z,60.88
2019-05-18T08:31:17.113Z,59.97
2019-05-18T08:32:17.115Z,60.17
2019-05-18T08:33:17.112Z,60.17
2019-05-18T08:34:17.082Z,59.97
2019-05-18T08:35:17.078Z,59.64
2019-05-18T08:36:17.059Z,60.15
2019-05-18T08:37:17.054Z,60.45
2019-05-18T08:38:17.065Z,60.35
2019-05-18T08:39:17.034Z,60.15
2019-05-18T08:40:17.019Z,60.55
2019-05-18T08:41:17.008Z,60.35
2019-05-18T08:42:16.995Z,60.45
2019-05-18T08:43:17.018Z,60.25
2019-05-18T08:44:17.004Z,60.15
2019-05-18T08:45:17.000Z,60.15
2019-05-18T08:46:16.980Z,60.35
2019-05-18T08:47:16.942Z,60.25
2019-05-18T08:48:16.945Z,60.45
2019-05-18T08:49:16.919Z,60.25
2019-05-18T08:50:16.908Z,60.32
2019-05-18T08:51:16.893Z,60.35
2019-05-18T08:52:16.921Z,60.32
2019-05-18T08:53:16.899Z,60.02
2019-05-18T08:54:16.871Z,60.22
2019-05-18T08:55:16.851Z,59.92
2019-05-18T08:56:16.857Z,59.42
2019-05-18T08:57:16.877Z,60.12
2019-05-18T08:58:16.873Z,59.92
2019-05-18T08:59:16.833Z,59.82
2019-05-18T09:00:16.797Z,59.72
2019-05-18T09:01:16.795Z,59.39
2019-05-18T09:02:16.786Z,59.01
2019-05-18T09:03:16.809Z,58.98
2019-05-18T09:04:16.779Z,58.28
2019-05-18T09:05:16.747Z,58.78
2019-05-18T09:06:16.733Z,58.48
2019-05-18T09:07:16.722Z,58.68
2019-05-18T09:08:16.878Z,58.48
2019-05-18T09:09:16.701Z,58.48
2019-05-18T09:10:16.697Z,58.25
2019-05-18T09:11:16.783Z,59.66
2019-05-18T09:12:16.897Z,58.75
2019-05-18T09:13:16.685Z,58.33
2019-05-18T09:14:16.684Z,57.29
2019-05-18T09:15:16.647Z,58.00
2019-05-18T09:16:16.636Z,58.00
2019-05-18T09:17:16.656Z,57.39
2019-05-18T09:18:16.607Z,56.76
2019-05-18T09:19:16.616Z,56.89
2019-05-18T09:20:16.602Z,56.66
2019-05-18T09:21:16.572Z,56.76
2019-05-18T09:22:23.120Z,56.76
2019-05-18T09:23:17.714Z,56.46
2019-05-18T09:24:16.581Z,56.76
2019-05-18T09:25:16.552Z,56.23
2019-05-18T09:26:16.539Z,56.74
2019-05-18T09:27:16.522Z,56.16
2019-05-18T09:28:16.499Z,56.23
2019-05-18T09:29:16.487Z,56.54
2019-05-18T09:30:16.499Z,56.13
2019-05-18T09:31:16.484Z,56.54
2019-05-18T09:32:16.459Z,56.13
2019-05-18T09:33:16.452Z,56.03
2019-05-18T09:34:16.454Z,56.54
2019-05-18T09:35:16.442Z,56.74
2019-05-18T09:36:16.427Z,56.54
2019-05-18T09:37:16.418Z,56.23
2019-05-18T09:38:16.413Z,55.73
2019-05-18T09:39:16.397Z,54.80
2019-05-18T09:40:16.402Z,54.80
2019-05-18T09:41:16.364Z,53.39
2019-05-18T09:42:16.355Z,53.50
2019-05-18T09:43:16.360Z,53.30
2019-05-18T09:44:16.343Z,53.57
2019-05-18T09:45:16.399Z,53.77
2019-05-18T09:46:16.304Z,54.47
2019-05-18T09:47:16.320Z,54.38
2019-05-18T09:48:16.360Z,54.65
2019-05-18T09:49:16.281Z,54.15
2019-05-18T09:50:16.359Z,53.85
2019-05-18T09:51:16.253Z,54.15
2019-05-18T09:52:16.274Z,53.95
2019-05-18T09:53:16.240Z,54.75
2019-05-18T09:54:16.242Z,54.58
2019-05-18T09:55:16.208Z,54.17
2019-05-18T09:56:16.195Z,54.05
2019-05-18T09:57:16.183Z,53.07
2019-05-18T09:58:16.251Z,54.05
2019-05-18T09:59:16.194Z,53.45
2019-05-18T10:00:16.154Z,53.32
2019-05-18T10:01:16.149Z,53.12
2019-05-18T10:02:16.140Z,53.42
2019-05-18T10:03:16.135Z,53.22
2019-05-18T10:04:16.142Z,53.30
2019-05-18T10:05:16.114Z,53.19
2019-05-18T10:06:16.093Z,53.00
2019-05-18T10:07:16.083Z,52.72
2019-05-18T10:08:16.070Z,53.09
2019-05-18T10:09:16.189Z,53.00
2019-05-18T10:10:16.050Z,52.19
2019-05-18T10:11:16.065Z,52.09
2019-05-18T10:12:16.032Z,51.27
2019-05-18T10:13:16.031Z,50.29
2019-05-18T10:14:16.043Z,49.37
2019-05-18T10:15:16.004Z,50.46
2019-05-18T10:16:15.993Z,51.46
2019-05-18T10:17:15.985Z,50.34
2019-05-18T10:18:15.983Z,51.34
2019-05-18T10:19:15.990Z,50.44
2019-05-18T10:20:15.987Z,50.44
2019-05-18T10:21:15.934Z,49.04
2019-05-18T10:22:15.955Z,49.24
2019-05-18T10:23:15.908Z,49.34
2019-05-18T10:24:15.954Z,48.02
2019-05-18T10:25:15.899Z,46.81
2019-05-18T10:26:15.889Z,46.31
2019-05-18T10:27:15.932Z,46.51
2019-05-18T10:28:15.865Z,47.42
2019-05-18T10:29:15.869Z,47.22
2019-05-18T10:30:15.854Z,47.42
2019-05-18T10:31:15.842Z,47.42
2019-05-18T10:32:15.821Z,47.52
2019-05-18T10:33:15.810Z,47.61
2019-05-18T10:34:15.828Z,47.72
2019-05-18T10:35:15.841Z,47.31
2019-05-18T10:36:15.795Z,47.92
2019-05-18T10:37:15.810Z,47.72
2019-05-18T10:38:15.748Z,47.31
2019-05-18T10:39:15.760Z,47.31
2019-05-18T10:40:15.729Z,46.92
2019-05-18T10:41:15.726Z,47.11
2019-05-18T10:42:15.716Z,47.02
2019-05-18T10:43:15.714Z,47.22
2019-05-18T10:44:15.705Z,47.31
2019-05-18T10:45:15.681Z,47.42
2019-05-18T10:46:15.669Z,47.30
2019-05-18T10:47:15.663Z,46.99
2019-05-18T10:48:15.674Z,47.30
2019-05-18T10:49:15.652Z,46.67
2019-05-18T10:50:15.630Z,46.37
2019-05-18T10:51:15.629Z,46.25
2019-05-18T10:53:28.375Z,45.05
2019-05-18T10:54:16.628Z,45.33
2019-05-18T10:55:15.606Z,46.13
2019-05-18T10:56:15.575Z,46.53
2019-05-18T10:57:15.561Z,46.43
2019-05-18T10:58:15.540Z,46.53
2019-05-18T10:59:15.554Z,46.65
2019-05-18T11:00:15.540Z,45.25
2019-05-18T11:01:15.538Z,44.63
2019-05-18T11:02:15.502Z,45.13
2019-05-18T11:03:15.498Z,44.83
2019-05-18T11:04:17.821Z,45.83
2019-05-18T11:05:15.481Z,45.63
2019-05-18T11:06:30.365Z,44.83
2019-05-18T11:07:16.490Z,45.10
2019-05-18T11:08:15.443Z,44.81
2019-05-18T11:09:15.455Z,44.05
2019-05-18T11:10:15.419Z,43.85
2019-05-18T11:11:15.412Z,43.52
2019-05-18T11:12:15.562Z,41.93
2019-05-18T11:13:17.192Z,39.77
2019-05-18T11:14:18.611Z,38.03
2019-05-18T11:16:16.660Z,37.95
2019-05-18T11:17:15.351Z,36.90
2019-05-18T11:18:15.375Z,36.75
2019-05-18T11:19:15.378Z,35.94
2019-05-18T11:20:15.322Z,35.76
2019-05-18T11:21:15.319Z,35.63
2019-05-18T11:22:15.343Z,35.00
2019-05-18T11:24:16.386Z,33.89
2019-05-18T11:25:15.294Z,33.67
2019-05-18T11:26:15.552Z,33.67
2019-05-18T11:27:15.252Z,32.28
2019-05-18T11:28:15.303Z,33.25
2019-05-18T11:29:15.314Z,33.33
2019-05-18T11:30:15.244Z,33.20
2019-05-18T11:31:15.217Z,34.05
2019-05-18T11:32:15.217Z,35.20
2019-05-18T11:33:15.203Z,34.17
2019-05-18T11:34:15.209Z,33.36
2019-05-18T11:35:15.172Z,33.26
2019-05-18T11:36:15.168Z,31.26
2019-05-18T11:37:15.175Z,31.97
2019-05-18T11:38:15.183Z,33.61
2019-05-18T11:39:15.179Z,34.74
2019-05-18T11:40:15.134Z,35.11
2019-05-18T11:41:15.122Z,37.30
2019-05-18T11:42:15.111Z,37.65
2019-05-18T11:43:15.129Z,37.17
2019-05-18T11:44:15.119Z,37.05
2019-05-18T11:45:15.102Z,36.59
2019-05-18T11:46:15.069Z,35.40
2019-05-18T11:47:15.076Z,35.19
2019-05-18T11:48:15.056Z,34.97
2019-05-18T11:49:15.127Z,34.76
2019-05-18T11:50:15.079Z,33.80
2019-05-18T11:51:15.049Z,33.07
2019-05-18T11:52:15.037Z,33.33
2019-05-18T11:53:15.007Z,32.53
2019-05-18T11:54:15.017Z,30.45
2019-05-18T11:55:15.001Z,30.04
2019-05-18T11:56:14.985Z,31.25
2019-05-18T11:57:15.100Z,30.43
2019-05-18T11:58:14.973Z,29.64
2019-05-18T11:59:15.888Z,28.96
2019-05-18T12:00:14.936Z,29.96
2019-05-18T12:01:14.943Z,29.75
2019-05-18T12:02:14.943Z,30.98
2019-05-18T12:03:14.920Z,31.57
2019-05-18T12:04:14.923Z,31.90
2019-05-18T12:05:14.895Z,31.85
2019-05-18T12:06:14.894Z,33.28
2019-05-18T12:07:14.886Z,33.34
2019-05-18T12:08:14.873Z,31.60
2019-05-18T12:09:14.905Z,30.49
2019-05-18T12:10:18.110Z,28.69
2019-05-18T12:11:14.840Z,29.16
2019-05-18T12:12:14.838Z,28.44
2019-05-18T12:13:14.838Z,27.15
2019-05-18T12:14:14.824Z,27.62
2019-05-18T12:15:14.854Z,26.64
2019-05-18T12:16:17.404Z,27.52
2019-05-18T12:17:14.778Z,27.85
2019-05-18T12:18:14.837Z,28.77
2019-05-18T12:19:15.052Z,30.59
2019-05-18T12:21:15.870Z,29.69
2019-05-18T12:22:15.148Z,28.59
2019-05-18T12:23:14.779Z,30.82
2019-05-18T12:24:16.017Z,31.73
2019-05-18T12:25:14.806Z,29.90
2019-05-18T12:26:14.738Z,29.69
2019-05-18T12:27:14.703Z,29.17
2019-05-18T12:28:14.709Z,28.74
2019-05-18T12:29:14.716Z,28.30
2019-05-18T12:30:14.662Z,28.03
2019-05-18T12:31:14.658Z,27.80
2019-05-18T12:32:14.645Z,27.58
2019-05-18T12:33:14.637Z,26.60
2019-05-18T12:34:14.634Z,26.00
2019-05-18T12:35:14.622Z,26.57
2019-05-18T12:36:15.815Z,25.83
2019-05-18T12:37:14.594Z,26.82
2019-05-18T12:38:14.659Z,27.21
2019-05-18T12:39:14.604Z,26.70
2019-05-18T12:40:14.596Z,26.68
2019-05-18T12:41:14.586Z,27.09
2019-05-18T12:42:15.372Z,26.38
2019-05-18T12:43:14.545Z,25.29
2019-05-18T12:44:14.709Z,26.17
2019-05-18T12:45:14.533Z,25.08
2019-05-18T12:46:14.532Z,25.31
2019-05-18T12:47:14.679Z,25.39
2019-05-18T12:48:14.564Z,25.75
2019-05-18T12:49:14.539Z,24.10
2019-05-18T12:50:14.476Z,24.99
2019-05-18T12:51:14.473Z,24.30
2019-05-18T12:52:14.459Z,25.05
2019-05-18T12:53:17.559Z,24.17
2019-05-18T12:54:26.949Z,24.55
2019-05-18T12:55:15.432Z,24.26
2019-05-18T12:56:14.472Z,24.15